Time;durP1;ratioP1;P1;durP2;ratioP2;P2;SDS_P1;SDS_P2;PMS_P1;PMS_P2;Temp;Humidity;BMP_temperature;BMP_pressure;BME280_temperature;BME280_humidity;BME280_pressure;Samples;Min_cycle;Max_cycle;Signal;HPM_P1;HPM_P2
2022/01/23 00:00:21;;;;;;;16.35;7.90;;;;;;;-149.78;100.00;50481.22;5071515;28;20114;-68
2022/01/23 00:02:50;;;;;;;16.35;8.02;;;;;;;-149.78;100.00;50440.16;5066192;28;20067;-68
2022/01/23 00:05:19;;;;;;;18.45;8.05;;;;;;;-149.78;100.00;50438.19;5065817;28;20039;-68
2022/01/23 00:07:46;;;;;;;19.05;8.30;;;;;;;-149.78;100.00;50479.28;5066622;28;20059;-68
2022/01/23 00:10:13;;;;;;;16.15;7.90;;;;;;;-149.78;100.00;50467.53;5065894;28;20389;-68
2022/01/23 00:12:54;;;;;;;16.63;6.80;;;;;;;-149.78;100.00;50455.81;5061750;28;20036;-68
2022/01/23 00:18:04;;;;;;;14.55;6.88;;;;;;;-149.78;100.00;50440.16;5065279;28;20116;-68
2022/01/23 00:20:30;;;;;;;11.48;6.57;;;;;;;-149.78;100.00;50463.63;5067208;28;20124;-68
2022/01/23 00:22:59;;;;;;;13.50;6.85;;;;;;;-149.78;100.00;50469.50;5049437;28;20056;-67
2022/01/23 00:30:58;;;;;;;13.85;6.97;;;;;;;-149.78;100.00;50491.00;5064433;28;20028;-68
2022/01/23 00:33:24;;;;;;;18.08;7.07;;;;;;;-149.78;100.00;50428.41;5067494;28;20099;-68
2022/01/23 00:35:50;;;;;;;14.32;6.90;;;;;;;-149.78;100.00;50467.53;5064028;28;20028;-68
2022/01/23 00:38:17;;;;;;;12.95;6.78;;;;;;;-149.78;100.00;50459.72;5065521;28;20040;-68
2022/01/23 00:40:45;;;;;;;14.57;6.30;;;;;;;-149.78;100.00;50463.63;5064929;28;20492;-65
2022/01/23 00:43:17;;;;;;;12.73;6.60;;;;;;;-149.78;100.00;50494.91;5064821;28;20032;-68
2022/01/23 00:45:52;;;;;;;14.93;6.90;;;;;;;-149.78;100.00;50451.88;5064658;28;20037;-65
2022/01/23 00:48:24;;;;;;;13.88;6.53;;;;;;;-149.78;100.00;50432.31;5064942;28;20034;-68
2022/01/23 00:50:50;;;;;;;14.23;6.40;;;;;;;-149.78;100.00;50440.16;5064815;28;20021;-68
2022/01/23 00:53:16;;;;;;;15.27;7.38;;;;;;;-149.78;100.00;50440.16;5046700;28;20043;-65
2022/01/23 00:55:44;;;;;;;15.73;6.78;;;;;;;-149.78;100.00;50467.53;5065847;28;20036;-65
2022/01/23 00:58:11;;;;;;;16.77;7.82;;;;;;;-149.78;100.00;50434.28;5045935;28;20360;-65
2022/01/23 01:00:38;;;;;;;12.05;6.80;;;;;;;-149.78;100.00;50436.25;5065901;28;20036;-65
2022/01/23 01:03:04;;;;;;;16.05;7.35;;;;;;;-149.78;100.00;50440.16;5062941;28;20040;-65
2022/01/23 01:05:30;;;;;;;15.32;7.43;;;;;;;-149.78;100.00;50451.88;5065531;28;20119;-65
2022/01/23 01:07:57;;;;;;;13.73;7.38;;;;;;;-149.78;100.00;50416.69;5066034;28;20116;-65
2022/01/23 01:10:28;;;;;;;15.73;7.07;;;;;;;-149.78;100.00;50432.31;5066305;28;20035;-65
2022/01/23 01:12:59;;;;;;;23.23;7.57;;;;;;;-149.78;100.00;50457.75;5065820;28;20052;-65
2022/01/23 01:34:08;;;;;;;22.90;9.77;;;;;;;-149.78;100.00;50455.81;5060239;28;20450;-65
2022/01/23 01:36:47;;;;;;;21.20;9.55;;;;;;;-149.78;100.00;50424.50;5065950;28;20052;-65
2022/01/23 01:39:15;;;;;;;22.05;10.50;;;;;;;-149.78;100.00;50408.84;5066272;28;20055;-65
2022/01/23 01:41:41;;;;;;;24.17;10.90;;;;;;;-149.78;100.00;50451.88;5065971;28;20036;-65
2022/01/23 01:44:07;;;;;;;26.05;11.20;;;;;;;-149.78;100.00;50459.72;5064626;28;20044;-65
2022/01/23 01:46:33;;;;;;;38.70;12.93;;;;;;;-149.78;100.00;50440.16;5064620;28;20081;-65
2022/01/23 01:48:59;;;;;;;28.42;11.82;;;;;;;-149.78;100.00;50436.25;5064959;28;20549;-65
2022/01/23 01:51:30;;;;;;;25.83;11.50;;;;;;;-149.78;100.00;50453.84;5066363;28;20047;-65
2022/01/23 01:54:03;;;;;;;28.08;11.50;;;;;;;-149.78;100.00;50440.16;5066279;28;20040;-64
2022/01/23 01:56:35;;;;;;;15.63;6.90;;;;;;;-149.78;100.00;50440.16;5065852;28;20059;-65
2022/01/23 02:17:18;;;;;;;11.35;4.95;;;;;;;-149.78;100.00;50451.88;5063728;28;20041;-66
2022/01/23 02:52:46;;;;;;;3.72;1.55;;;;;;;-149.78;100.00;50434.28;5063046;28;20028;-65
2022/01/23 02:55:14;;;;;;;2.85;1.23;;;;;;;-149.78;100.00;50440.16;5050765;28;20125;-65
2022/01/23 03:00:14;;;;;;;1.73;1.30;;;;;;;-149.78;100.00;50491.00;5066423;28;20028;-65
2022/01/23 03:02:44;;;;;;;1.92;1.30;;;;;;;-149.78;100.00;50440.16;5062623;28;20037;-65
2022/01/23 03:05:24;;;;;;;1.98;1.20;;;;;;;-149.78;100.00;50481.22;5063377;28;20039;-65
2022/01/23 03:08:17;;;;;;;3.08;1.60;;;;;;;-149.78;100.00;50440.16;5062744;28;20029;-65
2022/01/23 03:10:47;;;;;;;1.98;1.17;;;;;;;-149.78;100.00;50436.25;5062973;28;20048;-64
2022/01/23 03:24:44;;;;;;;2.08;1.23;;;;;;;-149.78;100.00;50479.28;5062596;28;20037;-69
2022/01/23 03:32:27;;;;;;;2.97;1.60;;;;;;;-149.78;100.00;50455.81;5063661;28;20043;-65
2022/01/23 03:34:53;;;;;;;2.85;1.90;;;;;;;-149.78;100.00;50416.69;5065031;28;20047;-64
2022/01/23 03:37:18;;;;;;;3.90;2.10;;;;;;;-149.78;100.00;50438.19;5065868;28;20037;-65
2022/01/23 03:39:44;;;;;;;3.35;2.08;;;;;;;-149.78;100.00;50455.81;5066162;28;20029;-64
2022/01/23 03:42:10;;;;;;;3.85;2.05;;;;;;;-149.78;100.00;50447.97;5066230;28;20549;-65
2022/01/23 03:44:40;;;;;;;6.22;2.00;;;;;;;-149.78;100.00;50436.25;5066926;28;20033;-64
2022/01/23 03:49:39;;;;;;;5.32;2.72;;;;;;;-149.78;100.00;50479.28;5066298;28;20051;-68
2022/01/23 03:52:11;;;;;;;5.85;2.60;;;;;;;-149.78;100.00;50440.16;5066259;28;20032;-69
2022/01/23 03:54:39;;;;;;;4.20;2.45;;;;;;;-149.78;100.00;50471.44;5065952;28;20377;-68
2022/01/23 03:57:06;;;;;;;5.90;2.72;;;;;;;-149.78;100.00;50428.41;5065464;28;20039;-68
2022/01/23 03:59:33;;;;;;;5.60;2.83;;;;;;;-149.78;100.00;50475.34;5062310;28;20492;-68
2022/01/23 04:01:59;;;;;;;4.88;2.78;;;;;;;-149.78;100.00;50483.19;5059915;28;20020;-69
2022/01/23 04:04:38;;;;;;;4.40;2.80;;;;;;;-149.78;100.00;50416.69;5047671;28;20039;-68
2022/01/23 04:07:31;;;;;;;7.00;2.95;;;;;;;-149.78;100.00;50459.72;5063835;28;20020;-68
2022/01/23 04:09:57;;;;;;;5.93;2.90;;;;;;;-149.78;100.00;50451.88;5058435;28;20491;-68
2022/01/23 04:20:43;;;;;;;7.35;3.28;;;;;;;-149.78;100.00;50438.19;5050053;28;20052;-69
2022/01/23 05:06:42;;;;;;;10.07;4.47;;;;;;;-149.78;100.00;50467.53;5065571;28;20044;-69
2022/01/23 05:09:10;;;;;;;7.88;3.42;;;;;;;-149.78;100.00;50414.72;5049551;28;20029;-68
2022/01/23 05:11:37;;;;;;;7.22;3.55;;;;;;;-149.78;100.00;50422.56;5065542;28;20044;-68
2022/01/23 05:14:04;;;;;;;6.80;3.70;;;;;;;-149.78;100.00;50444.06;5065748;28;20051;-68
2022/01/23 05:16:31;;;;;;;6.25;3.20;;;;;;;-149.78;100.00;50447.97;5047392;28;20584;-69
2022/01/23 05:18:59;;;;;;;5.70;2.72;;;;;;;-149.78;100.00;50463.63;5065768;28;20111;-69
2022/01/23 05:24:09;;;;;;;7.97;3.55;;;;;;;-149.78;100.00;50436.25;5065026;28;20066;-68
2022/01/23 05:26:42;;;;;;;7.63;3.60;;;;;;;-149.78;100.00;50477.31;5047001;28;20125;-68
2022/01/23 05:29:09;;;;;;;6.63;3.38;;;;;;;-149.78;100.00;50428.41;5065110;28;20040;-68
2022/01/23 05:31:34;;;;;;;7.38;3.50;;;;;;;-149.78;100.00;50451.88;5065702;28;20036;-68
2022/01/23 05:34:00;;;;;;;6.32;3.38;;;;;;;-149.78;100.00;50449.94;5064139;28;20059;-68
2022/01/23 05:36:26;;;;;;;6.45;3.03;;;;;;;-149.78;100.00;50438.19;5063913;28;20036;-68
2022/01/23 05:38:51;;;;;;;5.85;2.97;;;;;;;-149.78;100.00;50471.44;5066056;28;20118;-68
2022/01/23 05:41:18;;;;;;;4.90;2.78;;;;;;;-149.78;100.00;50440.16;5069780;28;20546;-68
2022/01/23 05:43:43;;;;;;;4.82;2.50;;;;;;;-149.78;100.00;50455.81;5066288;28;20044;-68
2022/01/23 05:46:09;;;;;;;4.93;2.72;;;;;;;-149.78;100.00;50514.47;5065936;28;20345;-69
2022/01/23 05:48:35;;;;;;;5.35;2.63;;;;;;;-149.78;100.00;50447.97;5064451;28;20488;-68
2022/01/23 05:51:01;;;;;;;5.93;2.83;;;;;;;-149.78;100.00;50479.28;5064395;28;20045;-68
2022/01/23 05:53:26;;;;;;;5.45;2.67;;;;;;;-149.78;100.00;50498.81;5063593;28;20044;-68
2022/01/23 05:55:52;;;;;;;6.75;2.97;;;;;;;-149.78;100.00;50451.88;5063498;28;20123;-69
2022/01/23 05:58:18;;;;;;;5.18;2.78;;;;;;;-149.78;100.00;50459.72;5061724;28;20056;-68
2022/01/23 06:00:43;;;;;;;5.45;2.65;;;;;;;-149.78;100.00;50475.34;5066233;28;20563;-68
2022/01/23 06:03:09;;;;;;;8.07;3.17;;;;;;;-149.78;100.00;50463.63;5064902;28;20036;-68
2022/01/23 06:05:35;;;;;;;9.35;3.67;;;;;;;-149.78;100.00;50428.41;5066111;28;20506;-68
2022/01/23 06:08:01;;;;;;;12.25;5.60;;;;;;;-149.78;100.00;50471.44;5061363;28;20048;-68
2022/01/23 06:10:28;;;;;;;12.45;5.88;;;;;;;-149.78;100.00;50471.44;5063683;28;20063;-68
2022/01/23 06:12:54;;;;;;;14.45;6.93;;;;;;;-149.78;100.00;50467.53;5063195;28;20102;-68
2022/01/23 06:15:20;;;;;;;17.50;8.38;;;;;;;-149.78;100.00;50436.25;5063357;28;20052;-68
2022/01/23 06:17:46;;;;;;;17.15;8.02;;;;;;;-149.78;100.00;50447.97;5063621;28;20421;-68
2022/01/23 06:20:14;;;;;;;18.58;8.60;;;;;;;-149.78;100.00;50440.16;5062860;28;20044;-68
2022/01/23 06:22:42;;;;;;;18.52;8.73;;;;;;;-149.78;100.00;50473.41;5047316;28;20044;-65
2022/01/23 06:25:11;;;;;;;19.85;9.40;;;;;;;-149.78;100.00;50483.19;5064585;28;20174;-68
2022/01/23 06:27:37;;;;;;;18.90;8.57;;;;;;;-149.78;100.00;50475.34;5064815;28;20020;-68
2022/01/23 06:30:03;;;;;;;19.65;8.63;;;;;;;-149.78;100.00;50489.03;5066821;28;20506;-68
2022/01/23 06:32:29;;;;;;;17.75;7.78;;;;;;;-149.78;100.00;50434.28;5063877;28;20437;-68
2022/01/23 06:34:55;;;;;;;16.63;7.68;;;;;;;-149.78;100.00;50473.41;5064626;28;20043;-65
2022/01/23 06:37:21;;;;;;;20.27;8.32;;;;;;;-149.78;100.00;50438.19;5065364;28;20376;-69
2022/01/23 06:39:47;;;;;;;17.73;7.90;;;;;;;-149.78;100.00;50440.16;5066678;28;20048;-68
2022/01/23 06:42:13;;;;;;;18.25;8.40;;;;;;;-149.78;100.00;50475.34;5063638;28;20463;-68
2022/01/23 06:44:38;;;;;;;20.00;9.13;;;;;;;-149.78;100.00;50432.31;5063893;28;20101;-68
2022/01/23 06:47:04;;;;;;;25.05;10.07;;;;;;;-149.78;100.00;50455.81;5063589;28;20420;-65
2022/01/23 06:49:30;;;;;;;25.63;11.00;;;;;;;-149.78;100.00;50496.88;5045362;28;20395;-68
2022/01/23 06:51:56;;;;;;;28.17;11.60;;;;;;;-149.78;100.00;50487.09;5063345;28;20036;-65
2022/01/23 06:54:23;;;;;;;27.42;11.88;;;;;;;-149.78;100.00;50473.41;5064209;28;20612;-65
2022/01/23 06:56:49;;;;;;;24.85;11.18;;;;;;;-149.78;100.00;50496.88;5046229;28;20123;-68
2022/01/23 06:59:14;;;;;;;27.30;12.18;;;;;;;-149.78;100.00;50418.63;5062577;28;20036;-68
2022/01/23 07:01:40;;;;;;;31.60;12.82;;;;;;;-149.78;100.00;50444.06;5044851;28;20069;-68
2022/01/23 07:04:05;;;;;;;30.20;13.27;;;;;;;-149.78;100.00;50483.19;5061601;28;20044;-65
2022/01/23 07:06:31;;;;;;;28.15;11.48;;;;;;;-149.78;100.00;50463.63;5042810;28;20048;-68
2022/01/23 07:08:57;;;;;;;28.50;12.35;;;;;;;-149.78;100.00;50428.41;5071272;28;20032;-68
2022/01/23 07:11:22;;;;;;;29.60;12.27;;;;;;;-149.78;100.00;50451.88;5067840;28;20480;-65
2022/01/23 07:13:48;;;;;;;26.80;12.10;;;;;;;-149.78;100.00;50438.19;5067637;28;20032;-68
2022/01/23 07:16:14;;;;;;;26.13;11.38;;;;;;;-149.78;100.00;50510.56;5066962;28;20056;-68
2022/01/23 07:18:39;;;;;;;26.85;12.27;;;;;;;-149.78;100.00;50481.22;5043867;28;20178;-65
2022/01/23 07:21:05;;;;;;;27.90;12.30;;;;;;;-149.78;100.00;50471.44;5051161;28;20066;-65
2022/01/23 07:23:31;;;;;;;24.85;11.15;;;;;;;-149.78;100.00;50483.19;5051846;28;20028;-64
2022/01/23 07:25:57;;;;;;;26.52;11.02;;;;;;;-149.78;100.00;50444.06;5064901;28;20047;-65
2022/01/23 07:28:31;;;;;;;26.13;11.13;;;;;;;-149.78;100.00;50463.63;5065332;28;20392;-68
2022/01/23 07:31:00;;;;;;;22.17;9.80;;;;;;;-149.78;100.00;50418.63;5064020;28;20456;-68
2022/01/23 07:33:25;;;;;;;24.25;10.43;;;;;;;-149.78;100.00;50467.53;5048730;28;20060;-65
2022/01/23 07:35:51;;;;;;;22.73;10.80;;;;;;;-149.78;100.00;50487.09;5066442;28;20039;-64
2022/01/23 07:38:18;;;;;;;23.75;9.85;;;;;;;-149.78;100.00;50449.94;5067380;28;20043;-65
2022/01/23 07:40:45;;;;;;;20.75;9.80;;;;;;;-149.78;100.00;50465.56;5066483;28;20055;-64
2022/01/23 07:43:12;;;;;;;25.20;10.93;;;;;;;-149.78;100.00;50459.72;5064881;28;20426;-68
2022/01/23 07:45:38;;;;;;;25.23;11.00;;;;;;;-149.78;100.00;50508.59;5065753;28;20037;-64
2022/01/23 07:48:05;;;;;;;20.33;9.63;;;;;;;-149.78;100.00;50463.63;5064156;28;20037;-64
2022/01/23 07:50:30;;;;;;;21.40;10.48;;;;;;;-149.78;100.00;50432.31;5048956;28;20044;-65
2022/01/23 07:52:56;;;;;;;21.25;9.60;;;;;;;-149.78;100.00;50475.34;5064333;28;20032;-64
2022/01/23 07:55:22;;;;;;;20.88;10.02;;;;;;;-149.78;100.00;50479.28;5064688;28;20044;-65
2022/01/23 07:57:52;;;;;;;24.42;10.70;;;;;;;-149.78;100.00;50459.72;5061968;28;20072;-64
2022/01/23 08:00:20;;;;;;;22.75;10.18;;;;;;;-149.78;100.00;50475.34;5061359;28;20028;-65
2022/01/23 08:02:46;;;;;;;20.48;9.18;;;;;;;-149.78;100.00;50463.63;5059464;28;20032;-64
2022/01/23 08:05:12;;;;;;;21.42;9.80;;;;;;;-149.78;100.00;50463.63;5039451;28;20036;-65
2022/01/23 08:07:38;;;;;;;22.10;9.50;;;;;;;-149.78;100.00;50457.75;5058609;28;20032;-64
2022/01/23 08:10:07;;;;;;;23.83;10.57;;;;;;;-149.78;100.00;50461.66;5059212;28;20082;-68
2022/01/23 08:12:33;;;;;;;25.10;10.77;;;;;;;-149.78;100.00;50479.28;5058618;28;20064;-68
2022/01/23 08:14:59;;;;;;;21.67;9.50;;;;;;;-149.78;100.00;50475.34;5062106;28;20117;-68
2022/01/23 08:17:26;;;;;;;18.05;8.77;;;;;;;-149.78;100.00;50451.88;5044342;28;20037;-68
2022/01/23 08:19:54;;;;;;;24.35;9.65;;;;;;;-149.78;100.00;50487.09;5064522;28;20032;-68
2022/01/23 08:22:24;;;;;;;26.08;10.88;;;;;;;-149.78;100.00;50451.88;5061871;28;20036;-68
2022/01/23 08:24:50;;;;;;;24.50;10.98;;;;;;;-149.78;100.00;50459.72;5063844;28;20033;-64
2022/01/23 08:27:16;;;;;;;30.15;11.38;;;;;;;-149.78;100.00;50467.53;5064272;28;20029;-64
2022/01/23 08:29:42;;;;;;;24.60;10.98;;;;;;;-149.78;100.00;50459.72;5064260;28;20058;-62
2022/01/23 08:32:08;;;;;;;27.65;11.27;;;;;;;-149.78;100.00;50440.16;5063174;28;20663;-64
2022/01/23 08:34:35;;;;;;;29.08;12.00;;;;;;;-149.78;100.00;50447.97;5040457;28;20040;-67
2022/01/23 08:37:03;;;;;;;24.80;11.50;;;;;;;-149.78;100.00;50479.28;5061285;28;20082;-64
2022/01/23 08:39:31;;;;;;;24.15;10.68;;;;;;;-149.78;100.00;50444.06;5061240;28;20045;-64
2022/01/23 08:41:57;;;;;;;24.10;10.68;;;;;;;-149.78;100.00;50467.53;5061098;28;20036;-63
2022/01/23 08:44:28;;;;;;;28.25;10.15;;;;;;;-149.78;100.00;50436.25;5060975;28;20127;-64
2022/01/23 08:46:54;;;;;;;23.15;10.43;;;;;;;-149.78;100.00;50455.81;5058602;28;20063;-67
2022/01/23 08:49:22;;;;;;;21.20;9.73;;;;;;;-149.78;100.00;50477.31;5061807;28;20039;-64
2022/01/23 08:51:49;;;;;;;19.38;8.65;;;;;;;-149.78;100.00;50447.97;5043799;28;20167;-64
2022/01/23 08:54:16;;;;;;;16.35;7.97;;;;;;;-149.78;100.00;50447.97;5052285;28;20048;-65
2022/01/23 08:56:42;;;;;;;19.27;8.75;;;;;;;-149.78;100.00;50508.59;5024150;28;20139;-64
2022/01/23 08:59:08;;;;;;;20.38;8.90;;;;;;;-149.78;100.00;50469.50;5061036;28;20032;-67
2022/01/23 09:01:35;;;;;;;17.15;8.25;;;;;;;-149.78;100.00;50449.94;5059992;28;20098;-67
2022/01/23 09:04:01;;;;;;;16.40;7.53;;;;;;;-149.78;100.00;50455.81;5042567;28;20024;-68
2022/01/23 09:06:27;;;;;;;15.68;7.72;;;;;;;-149.78;100.00;50473.41;5060471;28;20123;-67
2022/01/23 09:08:54;;;;;;;16.60;7.90;;;;;;;-149.78;100.00;50455.81;5044182;28;20120;-67
2022/01/23 09:11:26;;;;;;;13.80;6.63;;;;;;;-149.78;100.00;50485.13;5043593;28;20703;-63
2022/01/23 09:14:05;;;;;;;;;;;;;;;-149.78;100.00;50463.63;5059959;28;20040;-67
2022/01/23 09:16:32;;;;;;;15.27;7.07;;;;;;;-149.78;100.00;50461.66;5058301;28;19924;-63
2022/01/23 09:18:58;;;;;;;14.82;7.43;;;;;;;-149.78;100.00;50440.16;5054372;28;20025;-67
2022/01/23 09:21:23;;;;;;;15.45;7.93;;;;;;;-149.78;100.00;50491.00;5059350;28;20060;-67
2022/01/23 09:23:49;;;;;;;18.42;8.35;;;;;;;-149.78;100.00;50491.00;5061340;28;20045;-67
2022/01/23 09:26:18;;;;;;;19.92;8.50;;;;;;;-149.78;100.00;50459.72;5060525;28;20055;-63
2022/01/23 09:28:45;;;;;;;20.25;8.85;;;;;;;-149.78;100.00;50440.16;5060350;28;20456;-63
2022/01/23 09:31:13;;;;;;;23.17;9.65;;;;;;;-149.78;100.00;50469.50;5063361;28;20043;-63
2022/01/23 09:33:39;;;;;;;21.00;9.75;;;;;;;-149.78;100.00;50428.41;5043879;28;20673;-68
2022/01/23 09:36:05;;;;;;;19.92;8.85;;;;;;;-149.78;100.00;50471.44;5061840;28;20114;-68
2022/01/23 09:38:30;;;;;;;21.98;9.13;;;;;;;-149.78;100.00;50483.19;5040893;28;20091;-64
2022/01/23 09:40:58;;;;;;;21.08;9.73;;;;;;;-149.78;100.00;50455.81;5060540;28;20098;-64
2022/01/23 09:43:27;;;;;;;23.63;10.65;;;;;;;-149.78;100.00;50459.72;5059300;28;20045;-64
2022/01/23 09:45:54;;;;;;;27.63;10.85;;;;;;;-149.78;100.00;50444.06;5061646;28;20086;-64
2022/01/23 09:48:21;;;;;;;29.85;12.48;;;;;;;-149.78;100.00;50489.03;5063929;28;20056;-63
2022/01/23 09:50:51;;;;;;;24.75;11.38;;;;;;;-149.78;100.00;50485.13;5044408;28;20036;-64
2022/01/23 09:53:22;;;;;;;29.27;12.93;;;;;;;-149.78;100.00;50483.19;5060645;28;20086;-63
2022/01/23 09:55:52;;;;;;;32.28;13.82;;;;;;;-149.78;100.00;50459.72;5063642;28;20456;-68
2022/01/23 09:58:19;;;;;;;30.40;12.40;;;;;;;-149.78;100.00;50475.34;5031711;28;20036;-67
2022/01/23 10:00:44;;;;;;;34.00;14.48;;;;;;;-149.78;100.00;50463.63;5062020;28;20056;-68
2022/01/23 10:03:10;;;;;;;35.60;14.95;;;;;;;-149.78;100.00;50463.63;5062195;28;20060;-68
2022/01/23 10:05:37;;;;;;;37.45;16.15;;;;;;;-149.78;100.00;50463.63;5062021;28;20119;-67
2022/01/23 10:08:03;;;;;;;40.35;17.02;;;;;;;-149.78;100.00;50471.44;5062629;28;20514;-68
2022/01/23 10:10:35;;;;;;;42.60;17.00;;;;;;;-149.78;100.00;50487.09;5063272;28;20040;-68
2022/01/23 10:13:01;;;;;;;41.20;17.00;;;;;;;-149.78;100.00;50451.88;5065335;28;20043;-68
2022/01/23 10:15:31;;;;;;;46.35;17.67;;;;;;;-149.78;100.00;50475.34;5064278;28;20033;-68
2022/01/23 10:17:58;;;;;;;42.42;16.50;;;;;;;-149.78;100.00;50473.41;5063190;28;20039;-68
2022/01/23 10:20:25;;;;;;;41.53;17.27;;;;;;;-149.78;100.00;50471.44;5045434;28;20059;-68
2022/01/23 10:22:52;;;;;;;42.97;18.23;;;;;;;-149.78;100.00;50432.31;5063338;28;20058;-68
2022/01/23 10:25:21;;;;;;;45.50;18.70;;;;;;;-149.78;100.00;50463.63;5061590;28;20044;-68
2022/01/23 10:28:00;;;;;;;46.20;18.88;;;;;;;-149.78;100.00;50463.63;5062012;28;20024;-68
2022/01/23 10:30:28;;;;;;;46.22;19.17;;;;;;;-149.78;100.00;50432.31;5062010;28;20726;-68
2022/01/23 10:33:03;;;;;;;48.80;20.40;;;;;;;-149.78;100.00;50451.88;5062184;28;20043;-68
2022/01/23 10:35:32;;;;;;;46.03;19.52;;;;;;;-149.78;100.00;50455.81;5062060;28;20040;-68
2022/01/23 10:38:05;;;;;;;51.72;19.67;;;;;;;-149.78;100.00;50453.84;5062078;28;20060;-68
2022/01/23 10:40:35;;;;;;;50.05;20.05;;;;;;;-149.78;100.00;50447.97;5062014;28;20029;-68
2022/01/23 10:48:37;;;;;;;48.10;19.10;;;;;;;-149.78;100.00;50467.53;5069902;28;20032;-64
2022/01/23 10:51:21;;;;;;;44.13;19.23;;;;;;;-149.78;100.00;50475.34;5069463;28;20039;-62
2022/01/23 10:54:15;;;;;;;46.13;17.58;;;;;;;-149.78;100.00;50477.31;5051692;28;20036;-63
2022/01/23 10:57:03;;;;;;;43.00;17.95;;;;;;;-149.78;100.00;50479.28;5070069;28;20102;-64
2022/01/23 10:59:40;;;;;;;39.85;16.67;;;;;;;-149.78;100.00;50492.97;5070152;28;20040;-64
2022/01/23 11:02:08;;;;;;;36.53;14.65;;;;;;;-149.78;100.00;50459.72;5052106;28;20102;-68
2022/01/23 11:04:49;;;;;;;32.70;14.13;;;;;;;-149.78;100.00;50467.53;5067917;28;20055;-63
2022/01/23 11:07:16;;;;;;;30.20;12.75;;;;;;;-149.78;100.00;50494.91;5069046;28;20038;-62
2022/01/23 11:09:41;;;;;;;29.52;12.32;;;;;;;-149.78;100.00;50447.97;5069210;28;20040;-64
2022/01/23 11:17:57;;;;;;;24.05;9.95;;;;;;;-149.78;100.00;50475.34;5069646;28;20515;-64
2022/01/23 11:20:38;;;;;;;26.50;11.63;;;;;;;-149.78;100.00;50459.72;5069349;28;20472;-63
2022/01/23 11:23:20;;;;;;;23.98;9.90;;;;;;;-149.78;100.00;50465.56;5069090;28;20024;-64
2022/01/23 11:26:10;;;;;;;20.75;9.35;;;;;;;-149.78;100.00;50475.34;5069310;28;20028;-63
2022/01/23 11:28:43;;;;;;;20.83;9.00;;;;;;;-149.78;100.00;50440.16;5070229;28;20069;-63
2022/01/23 11:31:17;;;;;;;22.08;8.77;;;;;;;-149.78;100.00;50447.97;5069953;28;20133;-63
2022/01/23 11:33:43;;;;;;;21.52;9.13;;;;;;;-149.78;100.00;50483.19;5070073;28;20119;-63
2022/01/23 11:36:09;;;;;;;23.98;10.50;;;;;;;-149.78;100.00;50438.19;5069337;28;20044;-64
2022/01/23 11:38:36;;;;;;;24.38;9.32;;;;;;;-149.78;100.00;50455.81;5066218;28;20353;-63
2022/01/23 11:54:52;;;;;;;24.70;10.00;;;;;;;-149.78;100.00;50455.81;5064751;28;20566;-63
2022/01/23 11:57:42;;;;;;;21.10;9.07;;;;;;;-149.78;100.00;50479.28;5064138;28;20498;-63
2022/01/23 12:00:16;;;;;;;21.45;9.63;;;;;;;-149.78;100.00;50479.28;5065314;28;20066;-63
2022/01/23 12:02:43;;;;;;;20.77;9.65;;;;;;;-149.78;100.00;50494.91;5065605;28;20047;-63
2022/01/23 12:07:41;;;;;;;20.60;8.43;;;;;;;-149.78;100.00;50459.72;5064560;28;20035;-63
2022/01/23 12:10:24;;;;;;;21.95;8.63;;;;;;;-149.78;100.00;50459.72;5065621;28;20379;-68
2022/01/23 12:12:52;;;;;;;18.45;8.15;;;;;;;-149.78;100.00;50494.91;5065467;28;20051;-68
2022/01/23 12:18:20;;;;;;;18.20;8.45;;;;;;;-149.78;100.00;50487.09;5064562;28;20025;-69
2022/01/23 12:20:47;;;;;;;19.05;8.50;;;;;;;-149.78;100.00;50459.72;5064042;28;20119;-68
2022/01/23 12:23:14;;;;;;;18.30;8.02;;;;;;;-149.78;100.00;50487.09;5065448;28;20032;-68
2022/01/23 12:25:53;;;;;;;19.95;8.32;;;;;;;-149.78;100.00;50459.72;5065294;28;20091;-63
2022/01/23 12:28:21;;;;;;;23.67;9.23;;;;;;;-149.78;100.00;50436.25;5046586;28;20039;-63
2022/01/23 12:30:53;;;;;;;19.45;8.00;;;;;;;-149.78;100.00;50451.88;5063831;28;20036;-63
2022/01/23 12:33:28;;;;;;;17.23;7.93;;;;;;;-149.78;100.00;50489.03;5063428;28;20089;-64
2022/01/23 12:36:03;;;;;;;19.38;7.85;;;;;;;-149.78;100.00;50481.22;5066774;28;20036;-63
2022/01/23 12:38:33;;;;;;;19.70;8.18;;;;;;;-149.78;100.00;50483.19;5063884;28;20147;-63
2022/01/23 12:41:23;;;;;;;22.02;9.02;;;;;;;-149.78;100.00;50447.97;5060583;28;20036;-63
2022/01/23 12:44:01;;;;;;;18.52;8.05;;;;;;;-149.78;100.00;50451.88;5059157;28;20488;-63
2022/01/23 12:46:41;;;;;;;22.27;8.82;;;;;;;-149.78;100.00;50432.31;5059969;28;20037;-63
2022/01/23 12:49:19;;;;;;;18.48;8.40;;;;;;;-149.78;100.00;50475.34;5060753;28;20033;-63
2022/01/23 12:51:47;;;;;;;25.75;10.75;;;;;;;-149.78;100.00;50483.19;5060158;28;20853;-63
2022/01/23 12:54:17;;;;;;;23.90;9.35;;;;;;;-149.78;100.00;50444.06;5061021;28;20059;-63
2022/01/23 12:56:46;;;;;;;20.38;8.35;;;;;;;-149.78;100.00;50498.81;5057697;28;20072;-63
2022/01/23 12:59:21;;;;;;;23.20;9.07;;;;;;;-149.78;100.00;50469.50;5055897;28;20040;-63
2022/01/23 13:01:54;;;;;;;18.83;7.95;;;;;;;-149.78;100.00;50481.22;5059696;28;20074;-63
2022/01/23 13:04:20;;;;;;;16.73;7.28;;;;;;;-149.78;100.00;50494.91;5058377;28;20036;-63
2022/01/23 13:06:51;;;;;;;17.38;7.70;;;;;;;-149.78;100.00;50459.72;5057916;28;20055;-63
2022/01/23 13:17:48;;;;;;;17.85;7.47;;;;;;;-149.78;100.00;50477.31;5058260;28;20040;-63
2022/01/23 13:31:49;;;;;;;16.40;7.05;;;;;;;-149.78;100.00;50471.44;5060774;28;20033;-62
2022/01/23 13:34:34;;;;;;;;;;;;;;;-149.78;100.00;50444.06;5061237;28;20542;-62
2022/01/23 13:37:10;;;;;;;16.20;7.05;;;;;;;-149.78;100.00;50475.34;5061099;28;20027;-62
2022/01/23 13:39:48;;;;;;;18.48;7.45;;;;;;;-149.78;100.00;50463.63;5058029;28;20036;-63
2022/01/23 13:42:50;;;;;;;16.48;7.85;;;;;;;-149.78;100.00;50475.34;5059768;28;20047;-63
2022/01/23 13:53:29;;;;;;;14.25;6.45;;;;;;;-149.78;100.00;50471.44;5060218;28;20036;-62
2022/01/23 13:58:41;;;;;;;14.15;6.50;;;;;;;-149.78;100.00;50471.44;5043223;28;20093;-62
2022/01/23 14:01:36;;;;;;;15.43;6.57;;;;;;;-149.78;100.00;50494.91;5063421;28;20044;-62
2022/01/23 14:03:55;;;;;;;16.92;7.22;;;;;;;-149.78;100.00;50467.53;5061510;28;20143;-67
2022/01/23 14:06:22;;;;;;;17.77;7.45;;;;;;;-149.78;100.00;50463.63;5058974;28;20040;-68
2022/01/23 14:09:07;;;;;;;13.35;6.38;;;;;;;-149.78;100.00;50534.03;5011492;28;20039;-67
2022/01/23 14:11:33;;;;;;;17.90;7.15;;;;;;;-149.78;100.00;50475.34;5025482;28;20031;-66
2022/01/23 14:14:12;;;;;;;17.13;6.70;;;;;;;-149.78;100.00;50494.91;5059936;28;20035;-67
2022/01/23 14:16:37;;;;;;;15.27;6.03;;;;;;;-149.78;100.00;50451.88;5061077;28;20043;-66
2022/01/23 14:19:35;;;;;;;15.65;6.45;;;;;;;-149.78;100.00;50463.63;5054565;28;20032;-67
2022/01/23 14:22:01;;;;;;;14.75;6.28;;;;;;;-149.78;100.00;50485.13;5025993;28;20060;-66
2022/01/23 14:24:31;;;;;;;14.77;6.35;;;;;;;-149.78;100.00;50475.34;5061151;28;20094;-67
2022/01/23 14:27:06;;;;;;;17.65;6.40;;;;;;;-149.78;100.00;50487.09;5060126;28;20047;-66
2022/01/23 14:29:34;;;;;;;13.55;5.85;;;;;;;-149.78;100.00;50475.34;5063005;28;20115;-65
2022/01/23 14:32:12;;;;;;;14.48;6.30;;;;;;;-149.78;100.00;50475.34;5062798;28;20323;-63
2022/01/23 14:34:38;;;;;;;16.77;7.18;;;;;;;-149.78;100.00;50483.19;5058103;28;20120;-63
2022/01/23 14:37:06;;;;;;;13.45;5.90;;;;;;;-149.78;100.00;50491.00;5040423;28;20052;-63
2022/01/23 14:39:33;;;;;;;14.10;6.45;;;;;;;-149.78;100.00;50459.72;5060760;28;20051;-63
2022/01/23 14:42:12;;;;;;;13.98;6.53;;;;;;;-149.78;100.00;50475.34;5058774;28;20048;-63
2022/01/23 14:44:37;;;;;;;13.70;6.25;;;;;;;-149.78;100.00;50447.97;5060108;28;20033;-63
2022/01/23 14:47:03;;;;;;;18.52;6.82;;;;;;;-149.78;100.00;50485.13;5060951;28;20044;-66